Nearby METAR Reports

 

NZWN - Wellington Intl, New Zealand
Distance from station: E 68km
Updated: 25/05/2018 03:00
Clear
Clear
 Wind from NNW
Wind: NNW 22 km/h
Temperature: 12°C
Dew Point: 6°C
Humidity: 67%
Barometer: 993 hPa
Clouds: Clear
Visibility: 10 km
2018/05/24 15:00 NZWN 241500Z AUTO 33012KT 9999 NCD 12/06 Q0993 NOSIG
NZCH - Christchurch Int, New Zealand
Distance from station: SSW 269km
Updated: 25/05/2018 03:00
Clear
Clear
 Wind from SE
Wind: SE 2 km/h
Temperature: 2°C
Dew Point: -2°C
Humidity: 75%
Barometer: 990 hPa
Clouds: Clear
Visibility: 10 km
2018/05/24 15:00 NZCH 241500Z AUTO 13001KT 9999 NCD 02/M02 Q0990 NOSIG
 
NZAA - Auckland Intl Ar, New Zealand
Distance from station: N 480km
Updated: 25/05/2018 03:00
Mostly cloudy
Mostly cloudy
 Wind from N
Wind: N 17 km/h
Temperature: 13°C
Dew Point: 12°C
Humidity: 94%
Barometer: 1004 hPa
Clouds: Mostly cloudy
Visibility: 10 km
Cloud details: Mostly cloudy 1128 m
2018/05/24 15:00 NZAA 241500Z AUTO 36009KT 9999 BKN037/// 13/12 Q1004 NOSIG